• Join FlightAware (Why Join?)
  • Login
  • US Flag 
06:14PM EDT


 

Airport Tracker/Info


-or-


 

Live Flight TrackerFlight Track Log ✈ AFL150 ✈ 13-Oct-2013 ✈ UUEE / SVO - MUHA / HAV

Flight Track Log - Related Links

Times and Time Zones

All times are in EDT time to prevent confusion due to time zone crossing. See the AFL150 flight status page for this flight to view local times or setup timezone preferences in your user account.

Time Position Orientation Groundspeed Altitude Reporting Facility
EDT Latitude Longitude Course Direction KTS MPH feet Rate Location/Type
06:28AM 55.9660 37.3770 254° West 164 189 1,500  Level FlightAware
06:29AM 55.9620 37.3510 255° West 164 189 2,300 1,800 Climbing FlightAware
06:29AM 55.9580 37.3240 255° West 177 204 2,700 1,020 Climbing FlightAware
06:29AM 55.9540 37.2940 257° West 201 231 3,000 1,020 Climbing FlightAware
06:30AM 55.9490 37.2590 256° West 224 258 3,400 1,500 Climbing FlightAware
06:30AM 55.9440 37.2220 256° West 235 270 4,000 2,100 Climbing FlightAware
06:30AM 55.9530 37.1870 295° West 236 272 4,800 2,400 Climbing FlightAware
06:31AM 55.9610 37.1740 318° Northwest 242 278 5,200 2,400 Climbing FlightAware
06:31AM 55.9790 37.1490 322° Northwest 246 283 6,000 1,800 Climbing FlightAware
06:31AM 55.9970 37.1240 322° Northwest 250 288 6,400 1,020 Climbing FlightAware
06:32AM 56.0180 37.0880 316° Northwest 251 289 6,800 1,320 Climbing FlightAware
06:32AM 56.0230 37.0700 296° West 253 291 7,200 2,580 Climbing FlightAware
06:32AM 56.0310 37.0310 290° West 252 290 8,100 2,520 Climbing FlightAware
06:33AM 56.0440 36.9840 296° West 255 293 9,100 2,400 Climbing FlightAware
06:33AM 56.0540 36.9470 296° West 259 298 9,900 1,740 Climbing FlightAware
06:33AM 56.0730 36.8730 295° West 287 330 10,700 1,080 Climbing FlightAware
06:34AM 56.0930 36.7930 294° West 323 372 11,200 1,500 Climbing FlightAware
06:35AM 56.1140 36.7040 293° West 336 387 12,500 2,280 Climbing FlightAware
06:35AM 56.1350 36.6130 293° West 342 394 13,900 2,280 Climbing FlightAware
06:36AM 56.1570 36.5210 293° West 347 399 15,200 2,040 Climbing FlightAware
06:36AM 56.1790 36.4260 293° West 357 411 16,300 1,860 Climbing FlightAware
06:37AM 56.2040 36.3320 296° West 363 418 17,400 2,040 Climbing FlightAware
06:37AM 56.2270 36.2890 314° West 363 418 18,200 2,040 Climbing FlightAware
06:38AM 56.2780 36.2360 330° Northwest 372 428 19,300 1,800 Climbing FlightAware
06:38AM 56.3240 36.1910 332° Northwest 378 435 20,200 1,800 Climbing FlightAware
06:39AM 56.3780 36.1380 331° Northwest 383 441 21,300 1,860 Climbing FlightAware
06:40AM 56.4320 36.0870 332° Northwest 385 443 22,400 1,800 Climbing FlightAware
06:40AM 56.4880 36.0340 332° Northwest 388 447 23,400 1,500 Climbing FlightAware
06:41AM 56.5450 35.9800 332° Northwest 393 452 24,200 1,260 Climbing FlightAware
06:41AM 56.5990 35.9280 332° Northwest 400 460 24,900 1,260 Climbing FlightAware
06:42AM 56.6590 35.8710 332° Northwest 405 466 25,700 1,320 Climbing FlightAware
06:42AM 56.7170 35.8150 332° Northwest 408 470 26,500 1,320 Climbing FlightAware
06:43AM 56.7750 35.7580 332° Northwest 411 473 27,300 1,200 Climbing FlightAware
06:44AM 56.8340 35.7010 332° Northwest 416 479 27,900 1,020 Climbing FlightAware
06:44AM 56.8930 35.6440 332° Northwest 419 482 28,500 1,200 Climbing FlightAware
06:45AM 56.9540 35.5840 332° Northwest 419 482 29,300 1,080 Climbing FlightAware
06:45AM 57.0130 35.5250 331° Northwest 423 487 29,800 840 Climbing FlightAware
06:46AM 57.0750 35.4650 332° Northwest 429 494 30,300 840 Climbing FlightAware
06:47AM 57.1360 35.4040 332° Northwest 429 494 30,800 1,020 Climbing FlightAware
06:47AM 57.1960 35.3450 332° Northwest 427 491 31,500 1,080 Climbing FlightAware
06:48AM 57.2570 35.2830 331° Northwest 427 491 32,100 1,500 Climbing FlightAware
06:48AM 57.3250 35.2150 332° Northwest 412 474 33,400 1,980 Climbing FlightAware
06:49AM 57.3820 35.1580 332° Northwest 393 452 34,600 1,320 Climbing FlightAware
06:50AM 57.4380 35.1020 332° Northwest 395 455 35,000 660 Climbing FlightAware
06:50AM 57.4940 35.0440 331° Northwest 397 457 35,400 660 Climbing FlightAware
06:51AM 57.5500 34.9880 332° Northwest 397 457 35,800 480 Climbing FlightAware
06:51AM 57.6070 34.9300 331° Northwest 399 459 36,000 120 Climbing FlightAware
06:52AM 57.6630 34.8720 331° Northwest 402 463 36,000  Level FlightAware
06:53AM 57.7280 34.8050 331° Northwest 402 463 36,000  Level FlightAware
06:53AM 57.7770 34.7550 331° Northwest 401 461 36,000  Level FlightAware
06:54AM 57.8340 34.6960 331° Northwest 398 458 36,000  Level FlightAware
06:54AM 57.8910 34.6370 331° Northwest 397 457 36,000  Level FlightAware
06:55AM 57.9460 34.5790 331° Northwest 397 457 36,000  Level FlightAware
06:55AM 58.0100 34.5130 331° Northwest 397 457 36,000  Level FlightAware
06:56AM 58.0580 34.4620 331° Northwest 397 457 36,000  Level FlightAware
06:57AM 58.1150 34.4020 331° Northwest 398 458 36,000  Level FlightAware
06:57AM 58.1680 34.3360 327° Northwest 397 457 36,000  Level FlightAware
06:58AM 58.2170 34.2610 321° Northwest 398 458 36,000  Level FlightAware
06:58AM 58.2690 34.1840 322° Northwest 400 460 36,000  Level FlightAware
06:59AM 58.3180 34.1080 321° Northwest 400 460 36,000  Level FlightAware
07:00AM 58.3960 33.9890 321° Northwest 402 463 36,000  Level FlightAware
07:00AM 58.4500 33.9060 321° Northwest 404 465 36,000  Level FlightAware
07:01AM 58.4990 33.8300 321° Northwest 404 465 36,000  Level FlightAware
07:02AM 58.5430 33.7610 321° Northwest 404 465 36,000  Level FlightAware
07:02AM 58.5890 33.6900 321° Northwest 404 465 36,000  Level FlightAware
07:03AM 58.6590 33.5800 321° Northwest 399 459 36,000  Level FlightAware
07:03AM 58.7090 33.5030 321° Northwest 398 458 36,000  Level FlightAware
07:04AM 58.7560 33.4210 318° Northwest 395 455 36,000  Level FlightAware
07:05AM 58.8090 33.3190 315° West 396 456 36,000  Level FlightAware
07:05AM 58.8530 33.2330 315° West 396 456 36,000  Level FlightAware
07:06AM 58.9040 33.1360 316° Northwest 396 456 36,000  Level FlightAware
07:07AM 58.9610 33.0250 315° West 395 455 36,000  Level FlightAware
07:07AM 59.0020 32.9440 315° West 394 453 36,000  Level FlightAware
07:08AM 59.0460 32.8580 315° West 393 452 36,000  Level FlightAware
07:08AM 59.0890 32.7720 314° West 391 450 36,000  Level FlightAware
07:09AM 59.1340 32.6830 315° West 388 447 36,000  Level FlightAware
07:09AM 59.1760 32.6000 315° West 388 447 36,000  Level FlightAware
07:10AM 59.2290 32.4960 315° West 386 444 36,000  Level FlightAware
07:11AM 59.2590 32.4350 314° West 388 447 36,000  Level FlightAware
07:11AM 59.3150 32.3210 314° West 388 447 36,000  Level FlightAware
07:12AM 59.3490 32.2520 314° West 388 447 36,000  Level FlightAware
07:12AM 59.3950 32.1590 314° West 388 447 36,000  Level FlightAware
07:13AM 59.4370 32.0610 310° West 387 445 36,000  Level FlightAware
07:14AM 59.4680 31.9600 301° West 388 447 36,000  Level FlightAware
07:14AM 59.4940 31.8450 294° West 389 448 36,000  Level FlightAware
07:15AM 59.5190 31.7320 294° West 389 448 36,000  Level FlightAware
07:15AM 59.5480 31.6010 294° West 391 450 36,000  Level FlightAware
07:16AM 59.5680 31.5080 293° West 392 451 36,000  Level FlightAware
07:17AM 59.5970 31.3730 293° West 393 452 36,000  Level FlightAware
07:17AM 59.6170 31.2780 293° West 393 452 36,000  Level FlightAware
07:18AM 59.6450 31.1480 293° West 394 453 36,000  Level FlightAware
07:18AM 59.6670 31.0410 292° West 396 456 36,000  Level FlightAware
07:19AM 59.6910 30.9310 293° West 395 455 36,000  Level FlightAware
07:19AM 59.7160 30.8100 292° West 394 453 36,000  Level FlightAware
07:20AM 59.7400 30.6950 293° West 393 452 36,000  Level FlightAware
07:21AM 59.7620 30.5720 290° West 395 455 36,000  Level FlightAware
07:21AM 59.7810 30.4340 285° West 397 457 36,000  Level FlightAware
07:22AM 59.7890 30.3120 277° West 399 459 36,000  Level FlightAware
07:22AM 59.7880 30.1600 269° West 406 467 36,000  Level FlightAware
07:23AM 59.7770 30.0310 260° West 412 474 36,000  Level FlightAware
07:24AM 59.7610 29.9020 256° West 415 478 36,000  Level FlightAware
07:24AM 59.7450 29.7750 256° West 416 479 36,000  Level FlightAware
07:25AM 59.7280 29.6460 255° West 417 480 36,000  Level FlightAware
07:25AM 59.7110 29.5140 256° West 420 483 36,000  Level FlightAware
07:26AM 59.7050 29.3300 266° West 404 465 36,000  Level FlightAware
07:27AM 59.7190 29.1950 282° West 407 468 36,000  Level FlightAware
07:27AM 59.7300 29.0770 281° West 408 470 36,000  Level FlightAware
07:28AM 59.7420 28.9480 281° West 408 470 36,000  Level FlightAware
07:29AM 59.7530 28.8270 280° West 410 472 36,000  Level FlightAware
07:29AM 59.7660 28.6940 281° West 411 473 36,000  Level FlightAware
07:30AM 59.7780 28.5580 280° West 412 474 36,000  Level FlightAware
07:30AM 59.7900 28.4200 280° West 413 475 36,000  Level FlightAware
07:31AM 59.8000 28.3080 280° West 414 476 36,000  Level FlightAware
07:31AM 59.8130 28.1670 280° West 416 479 36,000  Level FlightAware
07:32AM 59.8240 28.0320 279° West 412 474 36,000  Level FlightAware
07:33AM 59.8360 27.9020 280° West 412 474 36,000  Level FlightAware
07:33AM 59.8460 27.7810 279° West 414 476 36,000  Level FlightAware
07:34AM 59.8560 27.6560 279° West 415 478 36,000  Level FlightAware
07:34AM 59.8670 27.5250 280° West 417 480 36,000  Level FlightAware
07:35AM 59.8800 27.3710 280° West 417 480 36,000  Level FlightAware
07:36AM 59.8900 27.2480 279° West 417 480 36,000  Level FlightAware
07:36AM 59.9000 27.1100 278° West 418 481 36,000  Level FlightAware
07:37AM 59.9100 26.9860 279° West 417 480 36,000  Level FlightAware
07:37AM 59.9200 26.8560 279° West 418 481 36,000  Level FlightAware
07:38AM 59.9320 26.7070 279° West 420 483 36,000  Level FlightAware
07:38AM 59.9420 26.5740 279° West 419 482 36,000  Level FlightAware
07:39AM 59.9500 26.4580 278° West 419 482 36,000  Level FlightAware
07:40AM 59.9670 26.3270 285° West 417 480 36,000  Level FlightAware
07:40AM 59.9960 26.1840 292° West 416 479 36,000  Level FlightAware
07:41AM 60.0250 26.0800 299° West 418 481 36,000  Level FlightAware
07:41AM 60.0550 25.9520 295° West 421 484 36,000  Level FlightAware
07:42AM 60.0850 25.8290 296° West 423 487 36,000  Level FlightAware
07:43AM 60.1160 25.7010 296° West 423 487 36,000  Level FlightAware
07:43AM 60.1440 25.5860 296° West 424 488 36,000  Level FlightAware
07:44AM 60.1750 25.4560 296° West 424 488 36,000  Level FlightAware
07:44AM 60.2050 25.3340 296° West 424 488 36,000  Level FlightAware
07:45AM 60.2360 25.2040 296° West 422 486 36,000  Level FlightAware
07:45AM 60.2630 25.0900 296° West 422 486 36,000  Level FlightAware
07:46AM 60.2920 24.9660 295° West 421 484 36,000  Level FlightAware
07:47AM 60.3230 24.8340 295° West 423 487 36,000  Level FlightAware
07:47AM 60.3500 24.7190 295° West 424 488 36,000  Level FlightAware
07:48AM 60.3800 24.5890 295° West 423 487 36,000  Level FlightAware
07:48AM 60.4090 24.4650 295° West 425 489 36,000  Level FlightAware
07:49AM 60.4390 24.3340 295° West 427 491 36,000  Level FlightAware
07:50AM 60.4680 24.2100 295° West 426 490 36,000  Level FlightAware
07:50AM 60.5000 24.0890 298° West 426 490 36,000  Level FlightAware
07:51AM 60.5350 23.9610 299° West 425 489 36,000  Level FlightAware
07:51AM 60.5630 23.8540 298° West 426 490 36,000  Level FlightAware
07:52AM 60.5960 23.7270 298° West 425 489 36,000  Level FlightAware
07:52AM 60.6310 23.5920 298° West 426 490 36,000  Level FlightAware
07:53AM 60.6630 23.4700 298° West 427 491 36,000  Level FlightAware
07:54AM 60.6930 23.3540 298° West 428 493 36,000  Level FlightAware
07:54AM 60.7260 23.2240 297° West 428 493 36,000  Level FlightAware
07:55AM 60.7580 23.0980 298° West 431 496 36,000  Level FlightAware
07:55AM 60.7930 22.9620 298° West 433 498 36,000  Level FlightAware
07:56AM 60.8220 22.8470 297° West 434 499 36,000  Level FlightAware
07:57AM 60.8540 22.7160 297° West 436 502 36,000  Level FlightAware
07:57AM 60.8880 22.5840 298° West 436 502 36,000  Level FlightAware
07:58AM 60.9170 22.4640 296° West 436 502 36,000  Level FlightAware
07:58AM 60.9510 22.3280 297° West 436 502 36,000  Level FlightAware
07:59AM 60.9820 22.2210 301° West 436 502 36,000  Level FlightAware
08:00AM 61.0270 22.0810 304° West 436 502 36,000  Level FlightAware
08:00AM 61.0620 21.9650 302° West 438 504 36,000  Level FlightAware
08:01AM 61.1020 21.8330 302° West 438 504 36,000  Level FlightAware
08:01AM 61.1380 21.7140 302° West 439 505 36,000  Level FlightAware
08:02AM 61.1740 21.5960 302° West 438 504 36,000  Level FlightAware
08:02AM 61.2100 21.4740 302° West 437 503 36,000  Level FlightAware
08:03AM 61.2490 21.3430 302° West 437 503 36,000  Level FlightAware
08:04AM 61.2860 21.2180 302° West 437 503 36,000  Level FlightAware
08:04AM 61.3230 21.0920 302° West 436 502 36,000  Level FlightAware
08:05AM 61.3600 20.9630 301° West 435 501 36,000  Level FlightAware
08:05AM 61.3960 20.8390 301° West 433 498 36,000  Level FlightAware
08:06AM 61.4300 20.7230 302° West 435 501 36,000  Level FlightAware
08:06AM 61.4680 20.5900 301° West 435 501 36,000  Level FlightAware
08:07AM 61.5050 20.4600 301° West 436 502 36,000  Level FlightAware
08:08AM 61.5410 20.3350 301° West 436 502 36,000  Level FlightAware
08:08AM 61.5780 20.2060 301° West 436 502 36,000  Level FlightAware
08:09AM 61.6130 20.0780 300° West 437 503 36,000  Level FlightAware
08:09AM 61.6480 19.9530 301° West 437 503 36,000  Level FlightAware
08:10AM 61.6840 19.8250 301° West 438 504 36,000  Level FlightAware
08:11AM 61.7180 19.7000 300° West 439 505 36,000  Level FlightAware
08:11AM 61.7560 19.5630 300° West 437 503 36,000  Level FlightAware
08:12AM 61.7820 19.4660 300° West 438 504 36,000  Level FlightAware
08:12AM 61.8210 19.3070 298° West 437 503 36,000  Level FlightAware
08:13AM 61.8510 19.1790 296° West 436 502 36,000  Level FlightAware
08:13AM 61.8850 19.0420 298° West 436 502 36,000  Level FlightAware
08:14AM 61.9190 18.9020 297° West 437 503 36,000  Level FlightAware
08:15AM 61.9490 18.7770 297° West 438 504 36,000  Level FlightAware
08:15AM 61.9810 18.6440 297° West 440 506 36,000  Level FlightAware
08:16AM 62.0140 18.5040 297° West 442 509 36,000  Level FlightAware
08:16AM 62.0480 18.3600 297° West 444 511 36,000  Level FlightAware
08:17AM 62.0780 18.2340 297° West 444 511 36,000  Level FlightAware
08:18AM 62.1080 18.1030 296° West 444 511 36,000  Level FlightAware
08:18AM 62.1430 17.9550 297° West 444 511 36,000  Level FlightAware
08:19AM 62.1760 17.8110 296° West 443 510 36,000  Level FlightAware
08:19AM 62.2020 17.6950 296° West 441 507 36,000  Level FlightAware
08:20AM 62.2370 17.5420 296° West 442 509 36,000  Level FlightAware
08:20AM 62.2670 17.4130 297° West 443 510 36,000  Level FlightAware
08:21AM 62.2990 17.2650 295° West 444 511 36,000  Level FlightAware
08:22AM 62.3240 17.1170 290° West 446 513 36,000  Level FlightAware
08:22AM 62.3440 16.9950 290° West 447 514 36,000  Level FlightAware
08:23AM 62.3710 16.8330 290° West 450 518 36,000  Level FlightAware
08:23AM 62.3950 16.6860 289° West 451 519 36,000  Level FlightAware
08:24AM 62.4210 16.5300 290° West 453 521 36,000  Level FlightAware
08:25AM 62.4420 16.3960 289° West 453 521 36,000  Level FlightAware
08:25AM 62.4670 16.2410 289° West 452 520 36,000  Level FlightAware
08:26AM 62.4900 16.0940 289° West 453 521 36,000  Level FlightAware
08:26AM 62.5160 15.9340 289° West 454 522 36,000  Level FlightAware
08:27AM 62.5370 15.7940 288° West 453 521 36,000  Level FlightAware
08:27AM 62.5610 15.6410 289° West 453 521 36,000  Level FlightAware
08:28AM 62.5850 15.4870 289° West 454 522 36,000  Level FlightAware
08:29AM 62.6060 15.3490 288° West 453 521 36,000  Level FlightAware
08:29AM 62.6290 15.1950 288° West 453 521 36,000  Level FlightAware
08:30AM 62.6520 15.0400 288° West 451 519 36,000  Level FlightAware
08:30AM 62.6770 14.8720 288° West 452 520 36,000  Level FlightAware
08:31AM 62.6970 14.7340 288° West 453 521 36,000  Level FlightAware
08:32AM 62.7190 14.5860 288° West 455 524 36,000  Level FlightAware
08:32AM 62.7430 14.4180 287° West 457 526 36,000  Level FlightAware
08:33AM 62.7630 14.2800 288° West 458 527 36,000  Level FlightAware
08:33AM 62.7850 14.1220 287° West 458 527 36,000  Level FlightAware
08:34AM 62.8080 13.9620 288° West 456 525 36,000  Level FlightAware
08:34AM 62.8290 13.8070 287° West 456 525 36,000  Level FlightAware
08:35AM 62.8490 13.6630 287° West 456 525 36,000  Level FlightAware
08:36AM 62.8710 13.5020 287° West 455 524 36,000  Level FlightAware
08:36AM 62.8910 13.3510 286° West 455 524 36,000  Level FlightAware
08:37AM 62.9140 13.1870 287° West 455 524 36,000  Level FlightAware
08:37AM 62.9320 13.0440 286° West 455 524 36,000  Level FlightAware
08:38AM 62.9530 12.8880 287° West 453 521 36,000  Level FlightAware
08:39AM 62.9740 12.7270 286° West 452 520 36,000  Level FlightAware
08:39AM 62.9920 12.5860 286° West 452 520 36,000  Level FlightAware
08:40AM 63.0120 12.4260 285° West 452 520 36,000  Level FlightAware
08:40AM 63.0310 12.2790 286° West 453 521 36,000  Level FlightAware
08:41AM 63.0520 12.1100 285° West 455 524 36,000  Level FlightAware
08:41AM 63.0720 11.9490 285° West 457 526 36,000  Level FlightAware
08:42AM 63.0910 11.7940 285° West 457 526 36,000  Level FlightAware
08:43AM 63.1110 11.6340 286° West 458 527 36,000  Level FlightAware
08:43AM 63.1280 11.4900 285° West 457 526 36,000  Level FlightAware
08:44AM 63.1460 11.3350 284° West 457 526 36,000  Level FlightAware
08:44AM 63.1670 11.1560 285° West 457 526 36,000  Level FlightAware
08:45AM 63.1840 11.0090 284° West 458 527 36,000  Level FlightAware
08:46AM 63.2040 10.8420 285° West 458 527 36,000  Level FlightAware
08:46AM 63.2210 10.6850 284° West 460 529 36,000  Level FlightAware
08:47AM 63.2380 10.5400 285° West 459 528 36,000  Level FlightAware
08:47AM 63.2550 10.3850 284° West 459 528 36,000  Level FlightAware
08:48AM 63.2740 10.2080 283° West 459 528 36,000  Level FlightAware
08:48AM 63.2910 10.0540 284° West 459 528 36,000  Level FlightAware
08:49AM 63.3100 9.8810 284° West 459 528 36,000  Level FlightAware
08:50AM 63.3250 9.7380 283° West 459 528 36,000  Level FlightAware
08:50AM 63.3420 9.5760 283° West 458 527 36,000  Level FlightAware
08:51AM 63.3580 9.4180 283° West 458 527 36,000  Level FlightAware
08:51AM 63.3730 9.2750 283° West 457 526 36,000  Level FlightAware
08:52AM 63.3920 9.0900 283° West 457 526 36,000  Level FlightAware
08:53AM 63.4080 8.9270 282° West 457 526 36,000  Level FlightAware
08:53AM 63.4210 8.7910 282° West 458 527 36,000  Level FlightAware
08:54AM 63.4380 8.6250 283° West 459 528 36,000  Level FlightAware
08:54AM 63.4530 8.4630 282° West 459 528 36,000  Level FlightAware
08:55AM 63.4700 8.2800 282° West 460 529 36,000  Level FlightAware
08:56AM 63.4880 8.0920 282° West 459 528 36,000  Level FlightAware
08:56AM 63.5010 7.9490 282° West 458 527 36,000  Level FlightAware
08:57AM 63.5180 7.7670 282° West 457 526 36,000  Level FlightAware
08:57AM 63.5340 7.5870 281° West 456 525 36,000  Level FlightAware
08:58AM 63.5510 7.3970 281° West 455 524 36,000  Level FlightAware
08:59AM 63.5630 7.2580 281° West 453 521 36,000  Level FlightAware
08:59AM 63.5760 7.1090 281° West 454 522 36,000  Level FlightAware
09:00AM 63.5920 6.9170 281° West 452 520 36,000  Level FlightAware
09:00AM 63.6040 6.7760 281° West 451 519 36,000  Level FlightAware
09:01AM 63.6180 6.6080 281° West 452 520 36,000  Level FlightAware
09:02AM 63.6310 6.4480 280° West 452 520 36,000  Level FlightAware
09:02AM 63.6440 6.2790 280° West 453 521 36,000  Level FlightAware
09:03AM 63.6570 6.1210 281° West 453 521 36,000  Level FlightAware
09:03AM 63.6690 5.9580 279° West 454 522 36,000  Level FlightAware
09:04AM 63.6820 5.7930 280° West 455 524 36,000  Level FlightAware
09:04AM 63.6940 5.6410 280° West 456 525 36,000  Level FlightAware
09:05AM 63.7060 5.4730 279° West 456 525 36,000  Level FlightAware
09:06AM 63.7190 5.2990 280° West 456 525 36,000  Level FlightAware
09:06AM 63.7310 5.1260 279° West 456 525 36,000  Level FlightAware
09:07AM 63.7410 4.9860 279° West 456 525 36,000  Level FlightAware
09:07AM 63.7530 4.8030 279° West 456 525 36,000  Level FlightAware
09:08AM 63.7640 4.6470 279° West 456 525 36,000  Level FlightAware
09:09AM 63.7760 4.4730 279° West 455 524 36,000  Level FlightAware
09:09AM 63.7860 4.3190 278° West 455 524 36,000  Level FlightAware
09:10AM 63.7960 4.1540 278° West 455 524 36,000  Level FlightAware
09:10AM 63.8070 3.9800 278° West 456 525 36,000  Level FlightAware
09:11AM 63.8130 3.8950 279° West 456 525 36,000  Level FlightAware
09:12AM 63.8310 3.6000 278° West 457 526 36,000  Level FlightAware
09:12AM 63.8410 3.4290 278° West 456 525 36,000  Level FlightAware
09:13AM 63.8510 3.2620 278° West 456 525 36,000  Level FlightAware
09:13AM 63.8600 3.0890 277° West 457 526 36,000  Level FlightAware
09:14AM 63.8700 2.9150 278° West 457 526 36,000  Level FlightAware
09:15AM 63.8780 2.7710 277° West 457 526 36,000  Level FlightAware
09:15AM 63.8870 2.5940 277° West 457 526 36,000  Level FlightAware
09:16AM 63.8960 2.4300 277° West 457 526 36,000  Level FlightAware
09:16AM 63.9050 2.2550 277° West 456 525 36,000  Level FlightAware
09:17AM 63.9120 2.1100 276° West 457 526 36,000  Level FlightAware
09:18AM 63.9210 1.9190 276° West 458 527 36,000  Level FlightAware
09:18AM 63.9290 1.7650 277° West 458 527 36,000  Level FlightAware
09:19AM 63.9360 1.6140 276° West 458 527 36,000  Level FlightAware
09:19AM 63.9430 1.4430 275° West 458 527 36,000  Level FlightAware
09:20AM 63.9510 1.2580 276° West 457 526 36,000  Level FlightAware
09:20AM 63.9580 1.1120 276° West 457 526 36,000  Level FlightAware
09:21AM 63.9640 0.9530 275° West 457 526 36,000  Level FlightAware
09:22AM 63.9720 0.7640 276° West 456 525 36,000  Level FlightAware
09:22AM 63.9790 0.5850 275° West 456 525 36,000  Level FlightAware
09:23AM 63.9850 0.4280 275° West 456 525 36,000  Level FlightAware
09:23AM 63.9910 0.2660 275° West 456 525 36,000  Level FlightAware
09:24AM 63.9970 0.0840 274° West 455 524 36,000  Level FlightAware
09:25AM 64.0030 -0.1010 274° West 456 525 36,000  Level FlightAware
09:25AM 64.0100 -0.3060 275° West 448 516 36,000  Level FlightAware
09:26AM 64.0160 -0.4840 274° West 447 514 36,000  Level FlightAware
09:26AM 64.0210 -0.6330 274° West 447 514 36,000  Level FlightAware
09:27AM 64.0260 -0.7990 274° West 446 513 36,000  Level FlightAware
09:28AM 64.0300 -0.9620 273° West 446 513 36,000  Level FlightAware
09:28AM 64.0350 -1.1190 274° West 446 513 36,000  Level FlightAware
09:29AM 64.0400 -1.3480 273° West 447 514 36,000  Level FlightAware
09:30AM 64.0450 -1.5170 274° West 447 514 36,000  Level FlightAware
09:30AM 64.0490 -1.6840 273° West 448 516 36,000  Level FlightAware
09:31AM 64.0520 -1.8590 272° West 448 516 36,000  Level FlightAware
09:31AM 64.0560 -2.0230 273° West 449 517 36,000  Level FlightAware
09:32AM 64.0590 -2.1760 273° West 450 518 36,000  Level FlightAware
09:33AM 64.0620 -2.3380 272° West 450 518 36,000  Level FlightAware
09:33AM 64.0650 -2.4990 273° West 451 519 36,000  Level FlightAware
09:34AM 64.0670 -2.6420 272° West 450 518 36,000  Level FlightAware
09:34AM 64.0690 -2.7920 272° West 450 518 36,000  Level FlightAware
09:35AM 64.0720 -2.9860 272° West 450 518 36,000  Level FlightAware
09:36AM 64.0750 -3.1310 273° West 450 518 36,000  Level FlightAware
09:36AM 64.0770 -3.3660 271° West 448 516 36,000  Level FlightAware
09:37AM 64.0790 -3.5460 272° West 448 516 36,000  Level FlightAware
09:37AM 64.0810 -3.6980 272° West 449 517 36,000  Level FlightAware
09:38AM 64.0820 -3.8790 271° West 449 517 36,000  Level FlightAware
09:39AM 64.0830 -4.0300 271° West 450 518 36,000  Level FlightAware
09:39AM 64.0840 -4.2100 271° West 450 518 36,000  Level FlightAware
09:40AM 64.0850 -4.3510 271° West 451 519 36,000  Level FlightAware
09:40AM 64.0860 -4.5410 271° West 452 520 36,000  Level FlightAware
09:41AM 64.0860 -4.7020 270° West 453 521 36,000  Level FlightAware
09:41AM 64.0860 -4.8760 270° West 453 521 36,000  Level FlightAware
09:42AM 64.0860 -5.0310 270° West 454 522 36,000  Level FlightAware
09:43AM 64.0860 -5.2090 270° West 454 522 36,000  Level FlightAware
09:43AM 64.0860 -5.3720 270° West 454 522 36,000  Level FlightAware
09:44AM 64.0850 -5.5270 269° West 453 521 36,000  Level FlightAware
09:44AM 64.0850 -5.7000 270° West 452 520 36,000  Level FlightAware
09:45AM 64.0840 -5.8780 269° West 452 520 36,000  Level FlightAware
09:46AM 64.0830 -6.0410 269° West 451 519 36,000  Level FlightAware
09:46AM 64.0830 -6.2110 270° West 451 519 36,000  Level FlightAware
09:47AM 64.0830 -6.3740 270° West 450 518 36,000  Level FlightAware
09:47AM 64.0830 -6.5240 270° West 449 517 36,000  Level FlightAware
09:48AM 64.0820 -6.7060 269° West 448 516 36,000  Level FlightAware
09:48AM 64.0810 -6.8710 269° West 447 514 36,000  Level FlightAware
09:49AM 64.0800 -7.0320 269° West 447 514 36,000  Level FlightAware
09:50AM 64.0790 -7.2010 269° West 447 514 36,000  Level FlightAware
09:50AM 64.0780 -7.3620 269° West 447 514 36,000  Level FlightAware
09:51AM 64.0760 -7.5040 268° West 448 516 36,000  Level FlightAware
09:51AM 64.0740 -7.6770 269° West 448 516 36,000  Level FlightAware
09:52AM 64.0720 -7.8220 268° West 448 516 36,000  Level FlightAware
09:53AM 64.0690 -8.0940 269° West 450 518 36,000  Level FlightAware
09:53AM 64.0670 -8.2480 268° West 450 518 36,000  Level FlightAware
09:54AM 64.0650 -8.3860 268° West 450 518 36,000  Level FlightAware
09:55AM 64.0620 -8.5310 267° West 450 518 36,000  Level FlightAware
09:55AM 64.0600 -8.6810 268° West 450 518 36,000  Level FlightAware
09:56AM 64.0580 -8.8260 268° West 450 518 36,000  Level FlightAware
09:56AM 64.0560 -8.9720 268° West 450 518 36,000  Level FlightAware
09:57AM 64.0530 -9.1170 267° West 450 518 36,000  Level FlightAware
09:58AM 64.0510 -9.2670 268° West 450 518 36,000  Level FlightAware
09:58AM 64.0490 -9.4040 268° West 450 518 36,000  Level FlightAware
09:59AM 64.0470 -9.5540 268° West 450 518 36,000  Level FlightAware
09:59AM 64.0440 -9.6990 267° West 450 518 36,000  Level FlightAware
10:00AM 64.0420 -9.8370 268° West 450 518 36,000  Level FlightAware
10:01AM 64.0210 -10.3160 264° West 452 520 36,000  Level FlightAware
10:01AM 64.0170 -10.4730 267° West 452 520 36,000  Level FlightAware
10:02AM 64.0120 -10.6360 266° West 452 520 36,000  Level FlightAware
10:02AM 64.0070 -10.7970 266° West 451 519 36,000  Level FlightAware
10:03AM 64.0000 -10.9780 265° West 449 517 36,000  Level FlightAware
10:04AM 63.9950 -11.1470 266° West 448 516 36,000  Level FlightAware
10:04AM 63.9890 -11.3070 265° West 448 516 36,000  Level FlightAware
10:05AM 63.9830 -11.4670 265° West 448 516 36,000  Level FlightAware
10:05AM 63.9770 -11.6290 265° West 449 517 36,000  Level FlightAware
10:06AM 63.9710 -11.7780 265° West 449 517 36,000  Level FlightAware
10:06AM 63.9630 -11.9750 265° West 450 518 36,000  Level FlightAware
10:07AM 63.9570 -12.1260 265° West 450 518 36,000  Level FlightAware
10:08AM 63.9500 -12.2860 264° West 450 518 36,000  Level FlightAware
10:08AM 63.9430 -12.4560 265° West 450 518 36,000  Level FlightAware
10:09AM 63.9360 -12.6160 264° West 450 518 36,000  Level FlightAware
10:09AM 63.9280 -12.7760 264° West 450 518 36,000  Level FlightAware
10:10AM 63.9200 -12.9490 264° West 449 517 36,000  Level FlightAware
10:11AM 63.9120 -13.1170 264° West 448 516 36,000  Level FlightAware
10:11AM 63.9060 -13.2310 263° West 449 517 36,000  Level FlightAware
10:12AM 63.8960 -13.4370 264° West 450 518 36,000  Level FlightAware
10:12AM 63.8870 -13.6120 263° West 450 518 36,000  Level FlightAware
10:13AM 63.8790 -13.7580 263° West 449 517 36,000  Level FlightAware
10:13AM 63.8700 -13.9280 263° West 448 516 36,000  Level FlightAware
10:14AM 63.8610 -14.0970 263° West 448 516 36,000  Level FlightAware
10:15AM 63.8520 -14.2500 262° West 448 516 36,000  Level FlightAware
10:15AM 63.8430 -14.4100 263° West 449 517 36,000  Level FlightAware
10:16AM 63.8320 -14.5880 262° West 450 518 36,000  Level FlightAware
10:16AM 63.8230 -14.7390 262° West 451 519 36,000  Level FlightAware
10:17AM 63.8130 -14.9090 262° West 451 519 36,000  Level FlightAware
10:17AM 63.8040 -15.0590 262° West 452 520 36,000  Level FlightAware
10:18AM 63.7930 -15.2290 262° West 453 521 36,000  Level FlightAware
10:19AM 63.7810 -15.4050 261° West 454 522 36,000  Level FlightAware
10:19AM 63.7720 -15.5540 262° West 453 521 36,000  Level FlightAware
10:20AM 63.7600 -15.7220 261° West 453 521 36,000  Level FlightAware
10:20AM 63.7490 -15.8890 262° West 453 521 36,000  Level FlightAware
10:21AM 63.7380 -16.0420 261° West 452 520 36,000  Level FlightAware
10:22AM 63.7280 -16.1960 262° West 451 519 36,000  Level FlightAware
10:22AM 63.7150 -16.3770 261° West 450 518 36,000  Level FlightAware
10:23AM 63.7040 -16.5240 260° West 450 518 36,000  Level FlightAware
10:23AM 63.6910 -16.6920 260° West 451 519 36,000  Level FlightAware
10:24AM 63.6790 -16.8610 261° West 453 521 36,000  Level FlightAware
10:24AM 63.6670 -17.0130 260° West 453 521 36,000  Level FlightAware
10:25AM 63.6550 -17.1750 261° West 453 521 36,000  Level FlightAware
10:26AM 63.6420 -17.3320 260° West 453 521 36,000  Level FlightAware
10:26AM 63.6280 -17.5140 260° West 451 519 36,000  Level FlightAware
10:27AM 63.6160 -17.6610 260° West 450 518 36,000  Level FlightAware
10:27AM 63.6020 -17.8210 259° West 449 517 36,000  Level FlightAware
10:28AM 63.5880 -17.9910 260° West 449 517 36,000  Level FlightAware
10:29AM 63.5750 -18.1480 260° West 451 519 36,000  Level FlightAware
10:29AM 63.5620 -18.3010 259° West 452 520 36,000  Level FlightAware
10:30AM 63.5470 -18.4740 259° West 453 521 36,000  Level FlightAware
10:30AM 63.5330 -18.6300 259° West 453 521 36,000  Level FlightAware
10:31AM 63.5190 -18.7900 259° West 454 522 36,000  Level FlightAware
10:31AM 63.5050 -18.9430 258° West 453 521 36,000  Level FlightAware
10:32AM 63.4890 -19.1170 258° West 452 520 36,000  Level FlightAware
10:33AM 63.4740 -19.2730 258° West 450 518 36,000  Level FlightAware
10:33AM 63.4610 -19.4170 259° West 449 517 36,000  Level FlightAware
10:34AM 63.4450 -19.5770 257° West 448 516 36,000  Level FlightAware
10:34AM 63.4280 -19.7520 258° West 447 514 36,000  Level FlightAware
10:35AM 63.4140 -19.8960 258° West 447 514 36,000  Level FlightAware
10:36AM 63.3990 -20.0510 258° West 447 514 36,000  Level FlightAware
10:36AM 63.3850 -20.1850 257° West 447 514 36,000  Level FlightAware
10:37AM 63.3690 -20.3470 258° West 449 517 36,000  Level FlightAware
10:37AM 63.3550 -20.4830 257° West 449 517 36,000  Level FlightAware
10:38AM 63.3400 -20.6280 257° West 450 518 36,000  Level FlightAware
10:38AM 63.3200 -20.8140 257° West 450 518 36,000  Level FlightAware
10:39AM 63.3030 -20.9770 257° West 451 519 36,000  Level FlightAware
10:40AM 63.2880 -21.1210 257° West 451 519 36,000  Level FlightAware
10:40AM 63.2700 -21.2840 256° West 452 520 36,000  Level FlightAware
10:41AM 63.2540 -21.4290 256° West 452 520 36,000  Level FlightAware
10:41AM 63.2340 -21.6090 256° West 452 520 36,000  Level FlightAware
10:42AM 63.2180 -21.7530 256° West 451 519 36,000  Level FlightAware
10:42AM 63.1990 -21.9160 256° West 451 519 36,000  Level FlightAware
10:43AM 63.1810 -22.0710 256° West 452 520 36,000 480 Level FlightAware
10:44AM 63.1640 -22.2180 256° West 451 519 36,600 900 Climbing FlightAware
10:44AM 63.1470 -22.3670 256° West 451 519 37,000 300 Climbing FlightAware
10:45AM 63.1260 -22.5390 255° West 454 522 37,000  Level FlightAware
10:45AM 63.1070 -22.6990 255° West 453 521 37,000  Level FlightAware
10:46AM 63.0890 -22.8450 255° West 452 520 37,000  Level FlightAware
10:47AM 63.0690 -23.0090 255° West 451 519 37,000  Level FlightAware
10:47AM 63.0510 -23.1590 255° West 450 518 37,000  Level FlightAware
10:48AM 63.0320 -23.3070 254° West 450 518 37,000  Level FlightAware
10:48AM 63.0120 -23.4690 255° West 451 519 37,000  Level FlightAware
10:49AM 62.9920 -23.6200 254° West 452 520 37,000  Level FlightAware
10:49AM 62.9740 -23.7620 254° West 452 520 37,000  Level FlightAware
10:50AM 62.9530 -23.9280 255° West 452 520 37,000  Level FlightAware
10:51AM 62.9320 -24.0860 254° West 452 520 37,000  Level FlightAware
10:51AM 62.9130 -24.2310 254° West 453 521 37,000  Level FlightAware
10:52AM 62.8910 -24.3900 253° West 455 524 37,000  Level FlightAware
10:52AM 62.8700 -24.5490 254° West 456 525 37,000  Level FlightAware
10:53AM 62.8480 -24.7090 253° West 458 527 37,000  Level FlightAware
10:54AM 62.8270 -24.8590 253° West 459 528 37,000  Level FlightAware
10:54AM 62.8080 -24.9980 253° West 461 531 37,000  Level FlightAware
10:55AM 62.7870 -25.1500 253° West 461 531 37,000  Level FlightAware
10:55AM 62.7640 -25.3110 253° West 462 532 37,000  Level FlightAware
10:56AM 62.7430 -25.4550 252° West 464 534 37,000  Level FlightAware
10:56AM 62.7210 -25.6060 252° West 465 535 37,000  Level FlightAware
10:57AM 62.6980 -25.7670 253° West 466 536 37,000  Level FlightAware
10:58AM 62.6750 -25.9240 252° West 467 537 37,000  Level FlightAware
10:58AM 62.6540 -26.0650 252° West 467 537 37,000  Level FlightAware
10:59AM 62.6280 -26.2380 252° West 468 539 37,000  Level FlightAware
10:59AM 62.6040 -26.4000 252° West 468 539 37,000  Level FlightAware
11:00AM 62.5830 -26.5380 252° West 468 539 37,000  Level FlightAware
11:00AM 62.5590 -26.6970 252° West 467 537 37,000  Level FlightAware
11:01AM 62.5330 -26.8590 251° West 466 536 37,000  Level FlightAware
11:02AM 62.5120 -26.9950 252° West 466 536 37,000  Level FlightAware
11:02AM 62.4860 -27.1600 251° West 466 536 37,000  Level FlightAware
11:03AM 62.4620 -27.3130 251° West 465 535 37,000  Level FlightAware
11:03AM 62.4360 -27.4760 251° West 463 533 37,000  Level FlightAware
11:04AM 62.4140 -27.6110 251° West 463 533 37,000  Level FlightAware
11:05AM 62.3870 -27.7750 251° West 463 533 37,000  Level FlightAware
11:05AM 62.3620 -27.9290 251° West 464 534 37,000  Level FlightAware
11:06AM 62.3400 -28.0630 251° West 464 534 37,000  Level FlightAware
11:06AM 62.3140 -28.2160 250° West 465 535 37,000  Level FlightAware
11:07AM 62.2870 -28.3790 250° West 465 535 37,000  Level FlightAware
11:07AM 62.2600 -28.5380 250° West 466 536 37,000  Level FlightAware
11:08AM 62.2300 -28.7090 249° West 467 537 37,000  Level FlightAware
11:09AM 62.2040 -28.8620 250° West 467 537 37,000  Level FlightAware
11:09AM 62.1800 -28.9970 249° West 467 537 37,000  Level FlightAware
11:10AM 62.1500 -29.1700 250° West 467 537 37,000  Level FlightAware
11:11AM 62.1240 -29.3150 249° West 466 536 37,000  Level FlightAware
11:11AM 62.1020 -29.4410 250° West 466 536 37,000  Level FlightAware
11:12AM 62.0720 -29.6080 249° West 465 535 37,000  Level FlightAware
11:12AM 62.0450 -29.7550 249° West 466 536 37,000  Level FlightAware
11:13AM 62.0170 -29.9050 248° West 465 535 37,000  Level FlightAware
11:14AM 61.9940 -30.1030 256° West 474 545 37,000  Level FlightAware
11:14AM 61.9820 -30.2590 261° West 475 547 37,000  Level FlightAware
11:15AM 61.9720 -30.4010 262° West 475 547 37,000  Level FlightAware
11:15AM 61.9610 -30.5420 261° West 475 547 37,000  Level FlightAware
11:16AM 61.9510 -30.6830 261° West 475 547 37,000  Level FlightAware
11:17AM 61.9400 -30.8320 261° West 475 547 37,000  Level FlightAware
11:17AM 61.9300 -30.9660 261° West 475 547 37,000  Level FlightAware
11:18AM 61.9180 -31.1230 261° West 475 547 37,000  Level FlightAware
11:19AM 61.9070 -31.2640 261° West 475 547 37,000  Level FlightAware
11:19AM 61.8970 -31.4080 262° West 475 547 37,000  Level FlightAware
11:20AM 61.8860 -31.5490 261° West 475 547 37,000  Level FlightAware
11:20AM 61.8750 -31.6900 261° West 475 547 37,000  Level FlightAware
11:21AM 61.8650 -31.8310 262° West 475 547 37,000  Level FlightAware
11:22AM 61.8540 -31.9760 261° West 475 547 37,000  Level FlightAware
11:22AM 61.8440 -32.1130 261° West 475 547 37,000  Level FlightAware
11:23AM 61.8330 -32.2570 261° West 475 547 37,000  Level FlightAware
11:23AM 61.8220 -32.3980 261° West 475 547 37,000  Level FlightAware
11:26AM 61.7834 -32.9727 260° West  Level FlightAware Approximate
11:27AM 61.7612 -33.2362 260° West  Level FlightAware Approximate
11:28AM 61.7384 -33.4993 260° West  Level FlightAware Approximate
11:29AM 61.7152 -33.7620 260° West  Level FlightAware Approximate
11:30AM 61.6914 -34.0243 259° West  Level FlightAware Approximate
11:31AM 61.6672 -34.2862 259° West  Level FlightAware Approximate
11:32AM 61.6424 -34.5477 259° West  Level FlightAware Approximate
11:33AM 61.6172 -34.8087 259° West  Level FlightAware Approximate
11:34AM 61.5914 -35.0694 258° West  Level FlightAware Approximate
11:35AM 61.5652 -35.3296 258° West  Level FlightAware Approximate
11:36AM 61.5384 -35.5893 258° West  Level FlightAware Approximate
11:37AM 61.5112 -35.8486 258° West  Level FlightAware Approximate
11:38AM 61.4835 -36.1074 257° West  Level FlightAware Approximate
11:39AM 61.4553 -36.3658 257° West  Level FlightAware Approximate
11:40AM 61.4266 -36.6237 257° West  Level FlightAware Approximate
11:41AM 61.3974 -36.8812 257° West  Level FlightAware Approximate
11:42AM 61.3677 -37.1381 257° West  Level FlightAware Approximate
11:43AM 61.3375 -37.3946 256° West  Level FlightAware Approximate
11:44AM 61.3069 -37.6505 256° West  Level FlightAware Approximate
11:45AM 61.2758 -37.9059 256° West  Level FlightAware Approximate
11:46AM 61.2442 -38.1609 256° West  Level FlightAware Approximate
11:47AM 61.2121 -38.4153 255° West  Level FlightAware Approximate
11:48AM 61.1796 -38.6692 255° West  Level FlightAware Approximate
11:49AM 61.1465 -38.9226 255° West  Level FlightAware Approximate
11:50AM 61.1130 -39.1754 255° West  Level FlightAware Approximate
11:51AM 61.0791 -39.4277 255° West  Level FlightAware Approximate
11:52AM 61.0446 -39.6795 254° West  Level FlightAware Approximate
11:53AM 61.0097 -39.9307 254° West  Level FlightAware Approximate
11:54AM 60.9885 -40.1875 263° West  Level FlightAware Approximate
11:55AM 60.9723 -40.4463 263° West  Level FlightAware Approximate
11:56AM 60.9556 -40.7048 263° West  Level FlightAware Approximate
11:57AM 60.9383 -40.9631 262° West  Level FlightAware Approximate
11:58AM 60.9206 -41.2210 262° West  Level FlightAware Approximate
11:59AM 60.9024 -41.4787 262° West  Level FlightAware Approximate
12:00PM 60.8837 -41.7361 262° West  Level FlightAware Approximate
12:01PM 60.8644 -41.9932 261° West  Level FlightAware Approximate
12:02PM 60.8447 -42.2499 261° West  Level FlightAware Approximate
12:03PM 60.8246 -42.5064 261° West  Level FlightAware Approximate
12:04PM 60.8039 -42.7625 261° West  Level FlightAware Approximate
12:05PM 60.7827 -43.0183 260° West  Level FlightAware Approximate
12:06PM 60.7611 -43.2737 260° West  Level FlightAware Approximate
12:07PM 60.7390 -43.5288 260° West  Level FlightAware Approximate
12:08PM 60.7164 -43.7835 260° West  Level FlightAware Approximate
12:09PM 60.6933 -44.0379 260° West  Level FlightAware Approximate
12:10PM 60.6697 -44.2919 259° West  Level FlightAware Approximate
12:11PM 60.6456 -44.5455 259° West  Level FlightAware Approximate
12:12PM 60.6211 -44.7988 259° West  Level FlightAware Approximate
12:13PM 60.5961 -45.0517 259° West  Level FlightAware Approximate
12:14PM 60.5706 -45.3041 258° West  Level FlightAware Approximate
12:15PM 60.5446 -45.5562 258° West  Level FlightAware Approximate
12:16PM 60.5182 -45.8078 258° West  Level FlightAware Approximate
12:17PM 60.4913 -46.0591 258° West  Level FlightAware Approximate
12:18PM 60.4639 -46.3099 258° West  Level FlightAware Approximate
12:19PM 60.4360 -46.5603 257° West  Level FlightAware Approximate
12:20PM 60.4077 -46.8102 257° West  Level FlightAware Approximate
12:21PM 60.3789 -47.0597 257° West  Level FlightAware Approximate
12:22PM 60.3497 -47.3088 257° West  Level FlightAware Approximate
12:23PM 60.3199 -47.5575 257° West  Level FlightAware Approximate
12:24PM 60.2898 -47.8056 256° West  Level FlightAware Approximate
12:25PM 60.2591 -48.0533 256° West  Level FlightAware Approximate
12:26PM 60.2280 -48.3006 256° West  Level FlightAware Approximate
12:27PM 60.1964 -48.5474 256° West  Level FlightAware Approximate
12:28PM 60.1644 -48.7936 255° West  Level FlightAware Approximate
12:29PM 60.1319 -49.0395 255° West  Level FlightAware Approximate
12:30PM 60.0990 -49.2848 255° West  Level FlightAware Approximate
12:31PM 60.0656 -49.5296 255° West  Level FlightAware Approximate
12:32PM 60.0318 -49.7739 255° West  Level FlightAware Approximate
12:33PM 59.9973 -50.0177 253° West  Level FlightAware Approximate
12:34PM 59.9599 -50.2594 253° West  Level FlightAware Approximate
12:35PM 59.9221 -50.5006 253° West  Level FlightAware Approximate
12:36PM 59.8838 -50.7412 253° West  Level FlightAware Approximate
12:37PM 59.8451 -50.9813 252° West  Level FlightAware Approximate
12:38PM 59.8060 -51.2208 252° West  Level FlightAware Approximate
12:39PM 59.7664 -51.4598 252° West  Level FlightAware Approximate
12:40PM 59.7264 -51.6982 252° West  Level FlightAware Approximate
12:41PM 59.6860 -51.9360 251° West  Level FlightAware Approximate
12:42PM 59.6451 -52.1732 251° West  Level FlightAware Approximate
12:43PM 59.6038 -52.4099 251° West  Level FlightAware Approximate
12:44PM 59.5621 -52.6459 251° West  Level FlightAware Approximate
12:45PM 59.5200 -52.8814 251° West  Level FlightAware Approximate
12:46PM 59.4774 -53.1163 250° West  Level FlightAware Approximate
12:47PM 59.4344 -53.3506 250° West  Level FlightAware Approximate
12:48PM 59.3910 -53.5843 250° West  Level FlightAware Approximate
12:49PM 59.3472 -53.8174 250° West  Level FlightAware Approximate
12:50PM 59.3030 -54.0499 250° West  Level FlightAware Approximate
12:51PM 59.2583 -54.2818 249° West  Level FlightAware Approximate
12:51PM 58.9500 -55.8167 249° West 470 541 37,000  Level Gander Center
12:52PM 59.2145 -54.5067 249° West  Level FlightAware Approximate
12:53PM 59.1703 -54.7311 249° West  Level FlightAware Approximate
12:53PM 58.8667 -56.2833 251° West 460 529 37,000  Level Gander Center
12:54PM 59.1257 -54.9549 249° West  Level FlightAware Approximate
12:54PM 58.8000 -56.5167 241° Southwest 460 529 37,000  Level Gander Center
12:55PM 59.0812 -55.1784 249° West  Level FlightAware Approximate
12:55PM 58.7000 -56.7000 224° Southwest 460 529 37,000  Level Gander Center
12:56PM 59.0363 -55.4015 249° West  Level FlightAware Approximate
12:56PM 58.5500 -56.8500 208° Southwest 400 460 37,000  Level Gander Center
12:57PM 58.4167 -56.9833 208° Southwest 520 598 37,000  Level Gander Center
12:59PM 58.2000 -57.3000 218° Southwest 520 598 37,000  Level Gander Center
01:00PM 58.0667 -57.4333 208° Southwest 520 598 37,000  Level Gander Center
01:01PM 57.9500 -57.6000 217° Southwest 510 587 37,000  Level Gander Center
01:02PM 57.8167 -57.7500 211° Southwest 510 587 37,000  Level Gander Center
01:03PM 57.7167 -57.8833 215° Southwest 510 587 37,000  Level Gander Center
01:04PM 57.5833 -58.0167 208° Southwest 510 587 37,000  Level Gander Center
01:05PM 57.4667 -58.1500 212° Southwest 510 587 37,000  Level Gander Center
01:06PM 57.3500 -58.2833 212° Southwest 510 587 37,000  Level Gander Center
01:07PM 57.2333 -58.4500 218° Southwest 500 575 37,000  Level Gander Center
01:08PM 57.1167 -58.5833 212° Southwest 510 587 37,000  Level Gander Center
01:09PM 57.0000 -58.7167 212° Southwest 490 564 37,000  Level Gander Center
01:11PM 56.7667 -59.0000 214° Southwest 500 575 37,000  Level Gander Center
01:12PM 56.6500 -59.1333 212° Southwest 500 575 37,000  Level Gander Center
01:13PM 56.5167 -59.2500 206° Southwest 500 575 37,000  Level Gander Center
01:15PM 56.2833 -59.5000 211° Southwest 500 575 37,000  Level Moncton Center
01:16PM 56.1667 -59.6333 212° Southwest 500 575 37,000  Level Moncton Center
01:17PM 56.0667 -59.7500 213° Southwest 500 575 37,000  Level Gander Center
01:18PM 55.9333 -59.8833 209° Southwest 500 575 37,000  Level Gander Center
01:19PM 55.8167 -60.0000 209° Southwest 500 575 37,000  Level Gander Center
01:20PM 55.7000 -60.1500 216° Southwest 490 564 37,000  Level Gander Center
01:21PM 55.5833 -60.2500 206° Southwest 490 564 37,000  Level Gander Center
01:22PM 55.4667 -60.3667 210° Southwest 500 575 37,000  Level Gander Center
01:23PM 55.3333 -60.5167 213° Southwest 500 575 37,000  Level Gander Center
01:25PM 55.1000 -60.7500 210° Southwest 490 564 37,000  Level Moncton Center
01:26PM 54.9833 -60.8833 213° Southwest 490 564 37,000  Level Moncton Center
01:27PM 54.8667 -61.0000 210° Southwest 490 564 37,000  Level Moncton Center
01:28PM 54.7333 -61.1000 203° Southwest 490 564 37,000  Level Moncton Center
01:29PM 54.6167 -61.2167 210° Southwest 490 564 37,000  Level Moncton Center
01:30PM 54.5000 -61.3500 214° Southwest 490 564 37,000  Level Moncton Center
01:31PM 54.3833 -61.4667 210° Southwest 490 564 37,000  Level Moncton Center
01:32PM 54.2667 -61.6000 214° Southwest 490 564 37,000  Level Moncton Center
01:33PM 54.1500 -61.6833 203° Southwest 490 564 37,000  Level Moncton Center
01:34PM 54.0333 -61.8000 210° Southwest 490 564 37,000  Level Moncton Center
01:35PM 53.9167 -61.9333 214° Southwest 490 564 37,000  Level Moncton Center
01:36PM 53.8000 -62.0167 203° Southwest 490 564 37,000  Level Moncton Center
01:37PM 53.6667 -62.1333 207° Southwest 490 564 37,000  Level Moncton Center
01:38PM 53.5500 -62.2667 214° Southwest 480 552 37,000  Level Moncton Center
01:39PM 53.4333 -62.3500 203° Southwest 480 552 37,000  Level Gander Center
01:40PM 53.3167 -62.4500 207° Southwest 480 552 37,000 -120 Level Gander Center
01:41PM 53.2000 -62.5667 211° Southwest 480 552 36,800 -360 Descending Gander Center
01:42PM 53.0833 -62.6667 207° Southwest 480 552 36,300 -420 Descending Gander Center
01:43PM 52.9667 -62.7833 211° Southwest 480 552 36,000 -180 Descending Gander Center
01:44PM 52.8667 -62.8833 211° Southwest 480 552 36,000  Level Gander Center
01:45PM 52.7500 -63.0000 211° Southwest 480 552 36,000  Level Gander Center
01:46PM 52.6167 -63.1000 204° Southwest 480 552 36,000  Level Moncton Center
01:47PM 52.5167 -63.1833 207° Southwest 480 552 36,000  Level Moncton Center
01:48PM 52.3833 -63.3000 208° Southwest 480 552 36,000  Level Moncton Center
01:49PM 52.2667 -63.4167 211° Southwest 470 541 36,000  Level Moncton Center
01:50PM 52.1500 -63.5167 208° Southwest 470 541 36,000  Level Moncton Center
01:51PM 52.0333 -63.6167 208° Southwest 470 541 36,000  Level Moncton Center
01:52PM 51.9167 -63.7167 208° Southwest 470 541 36,000  Level Moncton Center
01:53PM 51.8167 -63.8000 207° Southwest 470 541 36,000  Level Moncton Center
01:54PM 51.7000 -63.9167 212° Southwest 470 541 36,000  Level Moncton Center
01:55PM 51.5833 -64.0000 204° Southwest 470 541 36,000  Level Moncton Center
01:56PM 51.4667 -64.1000 208° Southwest 470 541 36,000  Level Gander Center
01:57PM 51.3500 -64.2000 208° Southwest 470 541 36,000  Level Gander Center
01:58PM 51.2333 -64.3000 208° Southwest 470 541 36,000  Level Gander Center
01:59PM 51.1167 -64.4000 208° Southwest 470 541 36,000  Level Gander Center
02:00PM 51.0000 -64.4667 200° South 470 541 36,000  Level Gander Center
02:01PM 50.9000 -64.5667 212° Southwest 460 529 36,000  Level Gander Center
02:02PM 50.7667 -64.6667 205° Southwest 460 529 36,000  Level Moncton Center
02:03PM 50.6500 -64.7667 209° Southwest 460 529 36,000  Level Moncton Center
02:04PM 50.5500 -64.8500 208° Southwest 460 529 36,000  Level Moncton Center
02:05PM 50.4333 -64.9500 209° Southwest 460 529 36,000  Level Moncton Center
02:06PM 50.3167 -65.0333 205° Southwest 460 529 36,000  Level Moncton Center
02:07PM 50.2000 -65.1333 209° Southwest 460 529 36,000  Level Moncton Center
02:08PM 50.0667 -65.2000 198° South 460 529 36,000  Level Moncton Center
02:09PM 49.9667 -65.3000 213° Southwest 460 529 36,000  Level Moncton Center
02:10PM 49.8500 -65.3833 205° Southwest 460 529 36,000  Level Moncton Center
02:11PM 49.7333 -65.4833 209° Southwest 460 529 36,000  Level Moncton Center
02:12PM 49.6167 -65.5667 205° Southwest 460 529 36,000  Level Moncton Center
02:13PM 49.5000 -65.6667 209° Southwest 460 529 36,000  Level Moncton Center
02:14PM 49.4000 -65.7333 203° Southwest 460 529 36,000  Level Moncton Center
02:15PM 49.2833 -65.8333 209° Southwest 460 529 36,000  Level Moncton Center
02:16PM 49.1667 -65.9000 200° South 460 529 36,000  Level Moncton Center
02:17PM 49.0500 -66.0000 209° Southwest 460 529 36,000  Level Moncton Center
02:18PM 48.9333 -66.0833 205° Southwest 460 529 36,000  Level Moncton Center
02:19PM 48.8000 -66.1833 206° Southwest 460 529 36,000  Level Moncton Center
02:20PM 48.7000 -66.2500 204° Southwest 460 529 36,000  Level Moncton Center
02:21PM 48.5833 -66.3500 210° Southwest 460 529 36,000  Level Moncton Center
02:22PM 48.4667 -66.4167 201° Southwest 460 529 36,000  Level Moncton Center
02:23PM 48.3667 -66.5167 214° Southwest 460 529 36,000  Level Moncton Center
02:24PM 48.2333 -66.5833 198° South 460 529 36,000  Level Moncton Center
02:25PM 48.1167 -66.6833 210° Southwest 460 529 36,000  Level Moncton Center
02:26PM 48.0167 -66.7500 204° Southwest 460 529 36,000  Level Moncton Center
02:27PM 47.8833 -66.8500 207° Southwest 460 529 36,000  Level Moncton Center
02:28PM 47.7667 -66.9167 201° Southwest 460 529 36,000  Level Moncton Center
02:29PM 47.6667 -67.0000 209° Southwest 450 518 36,000  Level Moncton Center
02:30PM 47.5500 -67.0833 206° Southwest 460 529 36,000  Level Moncton Center
02:36PM 46.9304 -67.5162 206° Southwest 460 529 36,000  Level FlightAware ADS-B (CYSG)
02:36PM 46.8600 -67.5638 205° Southwest 461 531 36,000  Level FlightAware ADS-B (CYSG)
02:37PM 46.7850 -67.6145 205° Southwest 462 532 36,000  Level FlightAware ADS-B (CYSG)
02:37PM 46.7232 -67.6561 205° Southwest 460 529 36,000  Level FlightAware ADS-B (CYSG)
02:38PM 46.6425 -67.7102 205° Southwest 460 529 36,000  Level FlightAware ADS-B (CYSG)
02:39PM 46.5839 -67.7494 205° Southwest 460 529 36,000  Level FlightAware ADS-B (CYSG)
02:39PM 46.5136 -67.7964 205° Southwest 459 528 36,000  Level FlightAware ADS-B (CYSG)
02:40PM 46.4519 -67.8374 205° Southwest 459 528 36,000  Level FlightAware ADS-B (CYSG)
02:40PM 46.3895 -67.8788 205° Southwest 459 528 36,000  Level FlightAware ADS-B (CYSG)
02:41PM 46.3155 -67.9279 205° Southwest 459 528 36,000  Level FlightAware ADS-B (CYSG)
02:42PM 46.2422 -67.9763 205° Southwest 460 529 36,000  Level FlightAware ADS-B (CYSG)
02:42PM 46.1700 -68.0238 205° Southwest 461 531 36,000  Level FlightAware ADS-B (CYSG)
02:43PM 46.1002 -68.0696 204° Southwest 461 531 36,000  Level FlightAware ADS-B (CYSG)
02:43PM 46.0220 -68.1208 204° Southwest 462 532 36,000  Level FlightAware ADS-B (CYSG)
02:44PM 45.9585 -68.1622 204° Southwest 463 533 36,000  Level FlightAware ADS-B (CYSG)
02:44PM 45.9007 -68.1998 204° Southwest 463 533 36,000  Level FlightAware ADS-B (CYSG)
02:45PM 45.8310 -68.2450 204° Southwest 463 533 36,000  Level FlightAware
02:45PM 45.8168 -68.2543 204° Southwest 463 533 36,000  Level FlightAware ADS-B (CYSG)
02:46PM 45.7565 -68.2932 204° Southwest 463 533 36,000  Level FlightAware ADS-B (CYSG)
02:46PM 45.6827 -68.3409 204° Southwest 461 531 36,000  Level FlightAware ADS-B (CYSG)
02:47PM 45.6152 -68.3843 204° Southwest 461 531 36,000  Level FlightAware ADS-B (CYSG)
02:47PM 45.5620 -68.4180 204° Southwest 460 529 36,000  Level FlightAware
02:48PM 45.5330 -68.4372 205° Southwest 461 531 36,000  Level FlightAware ADS-B (CYSG)
02:48PM 45.4738 -68.4750 204° Southwest 461 531 36,000  Level FlightAware ADS-B (CYSG)
02:49PM 45.4154 -68.5121 204° Southwest 462 532 36,000  Level FlightAware ADS-B (KBGR)
02:49PM 45.3520 -68.5526 204° Southwest 462 532 36,000  Level FlightAware ADS-B (CYSG)
02:50PM 45.2931 -68.5900 204° Southwest 462 532 36,000  Level FlightAware ADS-B (CYSG)
02:50PM 45.2318 -68.6290 204° Southwest 460 529 36,000  Level FlightAware ADS-B (CYSG)
02:51PM 45.1755 -68.6647 204° Southwest 460 529 36,000  Level FlightAware ADS-B (CYSG)
02:51PM 45.1069 -68.7079 204° Southwest 459 528 36,000  Level FlightAware ADS-B (CYQI)
02:52PM 45.0438 -68.7477 204° Southwest 459 528 36,000  Level FlightAware ADS-B (KBGR)
02:52PM 44.9765 -68.7899 204° Southwest 458 527 36,000  Level FlightAware ADS-B (CYSG)
02:53PM 44.9137 -68.8293 204° Southwest 459 528 36,000  Level FlightAware ADS-B (KBGR)
02:54PM 44.8507 -68.8685 204° Southwest 460 529 36,000  Level FlightAware ADS-B (CYSG)
02:54PM 44.7837 -68.9122 205° Southwest 460 529 36,000  Level FlightAware ADS-B (CYSG)
02:55PM 44.7212 -68.9560 206° Southwest 460 529 36,000  Level FlightAware ADS-B (KBGR)
02:55PM 44.6626 -68.9964 206° Southwest 460 529 36,000  Level FlightAware ADS-B (CYSG)
02:56PM 44.6040 -69.0364 206° Southwest 459 528 36,000  Level FlightAware ADS-B (CYSG)
02:56PM 44.5458 -69.0759 206° Southwest 460 529 36,000  Level FlightAware ADS-B (KBGR)
02:57PM 44.4850 -69.1171 206° Southwest 460 529 36,000  Level FlightAware ADS-B (CYQI)
02:57PM 44.4274 -69.1559 206° Southwest 460 529 36,000  Level FlightAware ADS-B (CYQI)
02:58PM 44.3678 -69.1961 206° Southwest 460 529 36,000  Level FlightAware ADS-B (CYQI)
02:58PM 44.3238 -69.2257 206° Southwest 459 528 36,000  Level FlightAware ADS-B (CYSG)
02:59PM 44.2399 -69.2819 206° Southwest 458 527 36,000  Level FlightAware ADS-B (KBGR)
02:59PM 44.1788 -69.3228 206° Southwest 458 527 36,000  Level FlightAware ADS-B (CYQI)
03:00PM 44.1197 -69.3623 206° Southwest 459 528 36,000  Level FlightAware ADS-B (CYQI)
03:01PM 44.0376 -69.4169 206° Southwest 460 529 36,000  Level FlightAware ADS-B (CYQI)
03:01PM 43.9627 -69.4666 206° Southwest 460 529 36,000  Level FlightAware ADS-B (CYQI)
03:02PM 43.9026 -69.5064 206° Southwest 459 528 36,000  Level FlightAware ADS-B (CYQI)
03:02PM 43.8389 -69.5485 205° Southwest 459 528 36,000  Level FlightAware ADS-B (KBOS)
03:03PM 43.7814 -69.5864 205° Southwest 459 528 36,000  Level FlightAware ADS-B (CYQI)
03:03PM 43.7259 -69.6229 205° Southwest 459 528 36,000  Level FlightAware ADS-B (CYQI)
03:04PM 43.6564 -69.6685 205° Southwest 459 528 36,000  Level FlightAware ADS-B (CYQI)
03:04PM 43.5900 -69.7120 205° Southwest 460 529 36,000  Level FlightAware ADS-B (KBOS)
03:05PM 43.5329 -69.7493 205° Southwest 460 529 36,000  Level FlightAware ADS-B (KBOS)
03:06PM 43.4589 -69.7963 205° Southwest 461 531 36,000  Level FlightAware ADS-B (CYQI)
03:06PM 43.4768 -69.7857 23° Northeast 460 529 36,000  Level FlightAware ADS-B (KBOS)
03:06PM 43.3567 -69.8373 197° South 463 533 36,000  Level FlightAware ADS-B (CYQI)
03:07PM 43.2880 -69.8514 189° South 463 533 36,000  Level FlightAware ADS-B (KBOS)
03:07PM 43.2227 -69.8621 187° South 463 533 36,000  Level FlightAware ADS-B (KBOS)
03:08PM 43.1448 -69.8751 187° South 463 533 36,000  Level FlightAware ADS-B (CYQI)
03:09PM 43.0763 -69.8854 186° South 463 533 36,000  Level FlightAware ADS-B (KBOS)
03:09PM 43.0113 -69.8950 186° South 463 533 36,000  Level FlightAware ADS-B (KBOS)
03:10PM 42.9360 -69.9060 186° South 454 522 36,000  Level FlightAware
03:10PM 42.9152 -69.9089 186° South 463 533 36,000  Level FlightAware ADS-B (CYQI)
03:10PM 42.8418 -69.9195 186° South 463 533 36,000  Level FlightAware ADS-B (KBOS)
03:11PM 42.7798 -69.9285 186° South 462 532 36,000  Level FlightAware ADS-B (KBOS)
03:12PM 42.6943 -69.9408 186° South 462 532 36,000  Level FlightAware ADS-B (KBOS)
03:12PM 42.6323 -69.9498 186° South 462 532 36,000  Level FlightAware ADS-B (KBOS)
03:13PM 42.5644 -69.9595 186° South 462 532 36,000  Level FlightAware ADS-B (CYQI)
03:13PM 42.5046 -69.9681 186° South 463 533 36,000  Level FlightAware ADS-B (KBOS)
03:14PM 42.4380 -69.9776 186° South 463 533 36,000  Level FlightAware ADS-B (KBOS)
03:14PM 42.3532 -69.9898 186° South 463 533 36,000  Level FlightAware ADS-B (KBOS)
03:15PM 42.2893 -69.9989 186° South 463 533 36,000  Level FlightAware ADS-B (KBOS)
03:15PM 42.2045 -70.0121 187° South 463 533 36,000  Level FlightAware ADS-B (KBOS)
03:16PM 42.1430 -70.0304 192° South 463 533 36,000  Level FlightAware ADS-B (KBOS)
03:17PM 42.0631 -70.0692 200° South 461 531 36,000  Level FlightAware ADS-B (KBOS)
03:17PM 41.9877 -70.1234 208° Southwest 459 528 36,000  Level FlightAware ADS-B (KBOS)
03:18PM 41.9359 -70.1729 215° Southwest 457 526 36,000  Level FlightAware ADS-B (KBOS)
03:18PM 41.8876 -70.2306 222° Southwest 455 524 36,000  Level FlightAware ADS-B (KBOS)
03:19PM 41.8340 -70.3080 227° Southwest 454 522 36,000  Level FlightAware ADS-B (KBOS)
03:20PM 41.7745 -70.3935 227° Southwest 454 522 36,000  Level FlightAware ADS-B (KBOS)
03:20PM 41.7182 -70.4751 227° Southwest 454 522 36,000  Level FlightAware ADS-B (KBOS)
03:21PM 41.6670 -70.5500 228° Southwest 452 520 36,000  Level FlightAware
03:22PM 41.6090 -70.6330 227° Southwest 453 521 36,000  Level FlightAware
03:22PM 41.6298 -70.6035 47° Northeast 452 520 36,000  Level FlightAware ADS-B (KBOS)
03:23PM 41.5160 -70.7670 227° Southwest 453 521 36,000  Level FlightAware
03:23PM 41.4640 -70.8420 227° Southwest 453 521 36,000  Level FlightAware
03:24PM 41.4140 -70.9140 227° Southwest 453 521 36,000  Level FlightAware
03:24PM 41.3620 -70.9880 227° Southwest 452 520 36,000  Level FlightAware
03:25PM 41.3120 -71.0600 227° Southwest 451 519 36,000  Level FlightAware
03:26PM 41.2670 -71.1390 233° Southwest 449 517 36,000  Level FlightAware
03:26PM 41.2230 -71.2510 242° Southwest 447 514 36,000  Level FlightAware
03:27PM 41.1980 -71.3400 250° West 448 516 36,000  Level FlightAware
03:27PM 41.1908 -71.3671 250° West 449 517 36,000  Level FlightAware ADS-B (KSNC)
03:28PM 41.1501 -71.5077 249° West 452 520 36,000  Level FlightAware ADS-B (KSNC)
03:29PM 41.1161 -71.5671 233° Southwest 453 521 36,000  Level FlightAware ADS-B (KSNC)
03:29PM 41.0688 -71.6306 225° Southwest 453 521 36,000  Level FlightAware ADS-B (KSNC)
03:30PM 41.0101 -71.7103 226° Southwest 454 522 36,000  Level FlightAware ADS-B (KSNC)
03:30PM 40.9557 -71.7839 226° Southwest 455 524 36,000  Level FlightAware ADS-B (KSNC)
03:31PM 40.9040 -71.8540 226° Southwest 454 522 36,000  Level FlightAware
03:31PM 40.8902 -71.8720 225° Southwest 454 522 36,000  Level FlightAware ADS-B (KSNC)
03:32PM 40.8465 -71.9306 225° Southwest 454 522 36,000  Level FlightAware ADS-B (KSNC)
03:32PM 40.8425 -71.9360 225° Southwest 453 521 36,000  Level FlightAware ADS-B (KSNC)
03:33PM 40.7570 -72.0500 225° Southwest 452 520 36,000  Level FlightAware
03:33PM 40.6960 -72.1320 226° Southwest 451 519 36,000  Level FlightAware
03:34PM 40.6440 -72.2013 225° Southwest 450 518 36,000  Level FlightAware ADS-B (KSNC)
03:34PM 40.5990 -72.2610 225° Southwest 450 518 36,000  Level FlightAware
03:35PM 40.5857 -72.2788 226° Southwest 450 518 36,000  Level FlightAware ADS-B (KSNC)
03:35PM 40.5384 -72.3417 225° Southwest 450 518 36,000  Level FlightAware ADS-B (KSNC)
03:36PM 40.4678 -72.4352 225° Southwest 448 516 36,000  Level FlightAware ADS-B (KSNC)
03:37PM 40.4110 -72.5103 225° Southwest 447 514 36,000  Level FlightAware ADS-B (KSNC)
03:37PM 40.3578 -72.5803 225° Southwest 448 516 36,000  Level FlightAware ADS-B (KSNC)
03:38PM 40.3033 -72.6521 225° Southwest 448 516 36,000  Level FlightAware ADS-B (KSNC)
03:38PM 40.2523 -72.7189 225° Southwest 450 518 36,000  Level FlightAware ADS-B (KSNC)
03:39PM 40.2016 -72.7845 225° Southwest 450 518 36,000  Level FlightAware ADS-B (KSNC)
03:40PM 40.1272 -72.8566 217° Southwest 450 518 36,000  Level FlightAware ADS-B (KSNC)
03:40PM 40.0613 -72.9194 216° Southwest 449 517 36,000  Level FlightAware ADS-B (KSNC)
03:41PM 40.0120 -72.9664 216° Southwest 449 517 36,000  Level FlightAware ADS-B (KSNC)
03:42PM 39.9410 -73.0341 216° Southwest 449 517 36,000  Level FlightAware ADS-B (KSNC)
03:42PM 39.8855 -73.0868 216° Southwest 449 517 36,000  Level FlightAware ADS-B (KSNC)
03:43PM 39.8011 -73.1669 216° Southwest 447 514 36,000  Level FlightAware ADS-B (KSNC)
03:43PM 39.7438 -73.2209 216° Southwest 447 514 36,000  Level FlightAware ADS-B (KSNC)
03:44PM 39.6764 -73.2845 216° Southwest 448 516 36,000  Level FlightAware ADS-B (KSNC)
03:45PM 39.6200 -73.3380 216° Southwest 447 514 36,000  Level FlightAware
03:45PM 39.5882 -73.3676 216° Southwest 448 516 36,000  Level FlightAware ADS-B (KSNC)
03:46PM 39.5040 -73.4470 216° Southwest 446 513 36,000  Level FlightAware
03:46PM 39.4470 -73.5000 216° Southwest 446 513 36,000  Level FlightAware
03:47PM 39.3910 -73.5520 216° Southwest 445 512 36,000  Level FlightAware
03:48PM 39.3300 -73.6090 216° Southwest 444 511 36,000  Level FlightAware
03:48PM 39.2680 -73.6660 215° Southwest 445 512 36,000  Level FlightAware
03:49PM 39.2070 -73.7240 216° Southwest 446 513 36,000  Level FlightAware
03:49PM 39.1560 -73.7710 216° Southwest 447 514 36,000  Level FlightAware
03:50PM 39.0910 -73.8300 215° Southwest 445 512 36,000  Level FlightAware
03:51PM 39.0340 -73.8830 216° Southwest 445 512 36,000  Level FlightAware
03:51PM 38.9820 -73.9310 216° Southwest 445 512 36,000  Level FlightAware
03:52PM 38.9200 -73.9880 216° Southwest 440 506 36,000  Level FlightAware
03:52PM 38.8590 -74.0430 215° Southwest 441 507 36,000  Level FlightAware
03:53PM 38.8090 -74.0890 216° Southwest 442 509 36,000  Level FlightAware
03:54PM 38.7400 -74.1520 215° Southwest 443 510 36,000  Level FlightAware
03:54PM 38.6820 -74.2050 216° Southwest 450 518 36,000  Level FlightAware
03:55PM 38.6230 -74.2590 216° Southwest 443 510 36,000  Level FlightAware
03:55PM 38.5640 -74.3120 215° Southwest 443 510 36,000  Level FlightAware
03:56PM 38.5060 -74.3650 216° Southwest 442 509 36,000  Level FlightAware
03:56PM 38.4470 -74.4170 215° Southwest 449 517 36,000  Level FlightAware
03:57PM 38.3870 -74.4720 216° Southwest 449 517 36,000  Level FlightAware
03:58PM 38.3280 -74.5250 215° Southwest 450 518 36,000  Level FlightAware
03:58PM 38.2690 -74.5780 215° Southwest 450 518 36,000  Level FlightAware
03:59PM 38.1990 -74.6410 215° Southwest 450 518 36,000  Level FlightAware
03:59PM 38.1380 -74.6950 215° Southwest 449 517 36,000  Level FlightAware
04:00PM 38.0740 -74.7520 215° Southwest 448 516 36,000  Level FlightAware
04:01PM 38.0040 -74.8140 215° Southwest 448 516 36,000  Level FlightAware
04:01PM 37.9360 -74.8740 215° Southwest 448 516 36,000  Level FlightAware
04:02PM 37.8810 -74.9230 215° Southwest 440 506 36,000  Level FlightAware
04:03PM 37.8170 -74.9800 215° Southwest 448 516 36,000  Level FlightAware
04:03PM 37.7570 -75.0330 215° Southwest 448 516 36,000  Level FlightAware
04:04PM 37.7020 -75.0810 215° Southwest 449 517 36,000  Level FlightAware
04:04PM 37.6370 -75.1380 215° Southwest 448 516 36,000  Level FlightAware
04:05PM 37.5700 -75.1970 215° Southwest 447 514 36,000  Level FlightAware
04:06PM 37.5100 -75.2490 215° Southwest 439 505 36,000  Level FlightAware
04:06PM 37.4520 -75.3000 215° Southwest 438 504 36,000  Level FlightAware
04:07PM 37.3960 -75.3490 215° Southwest 436 502 36,000  Level FlightAware
04:07PM 37.3350 -75.4020 215° Southwest 437 503 36,000  Level FlightAware
04:08PM 37.2670 -75.4610 215° Southwest 436 502 36,000  Level FlightAware
04:08PM 37.2150 -75.5060 215° Southwest 436 502 36,000  Level FlightAware
04:09PM 37.1500 -75.5620 214° Southwest 435 501 36,000  Level FlightAware
04:10PM 37.0980 -75.6070 215° Southwest 435 501 36,000  Level FlightAware
04:10PM 37.0200 -75.6750 215° Southwest 437 503 36,000  Level FlightAware
04:11PM 36.9450 -75.7390 214° Southwest 437 503 36,000  Level FlightAware
04:12PM 36.8660 -75.8070 215° Southwest 437 503 36,000  Level FlightAware
04:13PM 36.7910 -75.8700 214° Southwest 445 512 36,000  Level FlightAware
04:13PM 36.7400 -75.9130 214° Southwest 443 510 36,000  Level FlightAware
04:14PM 36.6900 -75.9560 215° Southwest 443 510 36,000  Level FlightAware
04:15PM 36.6360 -76.0000 213° Southwest 443 510 36,000  Level FlightAware
04:15PM 36.5420 -76.0820 215° Southwest 435 501 36,000  Level FlightAware
04:16PM 36.4650 -76.1470 214° Southwest 436 502 36,000  Level FlightAware
04:16PM 36.4050 -76.1970 214° Southwest 436 502 36,000  Level FlightAware
04:17PM 36.3370 -76.2550 214° Southwest 443 510 36,000  Level FlightAware
04:18PM 36.2680 -76.3130 214° Southwest 435 501 36,000  Level FlightAware
04:19PM 36.1780 -76.3880 214° Southwest 433 498 36,000  Level FlightAware
04:20PM 36.1020 -76.4520 214° Southwest 441 507 36,000  Level FlightAware
04:20PM 36.1010 -76.4530 219° Southwest 441 507 36,000  Level FlightAware
04:21PM 36.0490 -76.4960 214° Southwest 441 507 36,000  Level FlightAware
04:21PM 35.9190 -76.6040 214° Southwest 438 504 36,000  Level FlightAware
04:22PM 35.8630 -76.6510 214° Southwest 438 504 36,000  Level FlightAware
04:23PM 35.8790 -76.6380 33° Northeast 438 504 36,000  Level FlightAware
04:23PM 35.8270 -76.6800 213° Southwest 438 504 36,000  Level FlightAware
04:24PM 35.7760 -76.7230 214° Southwest 438 504 36,000  Level FlightAware
04:25PM 35.7230 -76.7670 214° Southwest 438 504 36,000  Level FlightAware
04:25PM 35.6720 -76.8100 214° Southwest 438 504 36,000  Level FlightAware
04:26PM 35.6200 -76.8520 213° Southwest 438 504 36,000  Level FlightAware
04:26PM 35.5690 -76.8950 214° Southwest 438 504 36,000  Level FlightAware
04:27PM 35.3790 -76.8890 179° South 36,000  Level FlightAware
04:27PM 35.2870 -76.9310 200° South 440 506 36,000  Level FlightAware
04:28PM 35.2290 -76.9570 200° South 439 505 36,000  Level FlightAware
04:29PM 35.1380 -76.9970 200° South 439 505 36,000  Level FlightAware
04:29PM 35.0690 -77.0290 201° Southwest 437 503 36,000  Level FlightAware
04:30PM 35.0040 -77.0580 200° South 437 503 36,000  Level FlightAware
04:31PM 34.9390 -77.0870 200° South 437 503 36,000  Level FlightAware
04:31PM 34.8750 -77.1150 200° South 437 503 36,000  Level FlightAware
04:32PM 34.7960 -77.1500 200° South 438 504 36,000  Level FlightAware
04:32PM 34.7390 -77.1760 201° Southwest 435 501 36,000  Level FlightAware
04:33PM 34.6530 -77.2140 200° South 434 499 36,000  Level FlightAware
04:34PM 34.5900 -77.2420 200° South 433 498 36,000  Level FlightAware
04:34PM 34.5270 -77.2700 200° South 434 499 36,000  Level FlightAware
04:35PM 34.4740 -77.2930 200° South 435 501 36,000  Level FlightAware
04:35PM 34.3940 -77.3280 200° South 438 504 36,000  Level FlightAware
04:36PM 34.3320 -77.3550 200° South 438 504 36,000  Level FlightAware
04:37PM 34.2670 -77.3840 200° South 438 504 36,000  Level FlightAware
04:37PM 34.1910 -77.4180 200° South 438 504 36,000  Level FlightAware
04:38PM 34.1150 -77.4510 200° South 439 505 36,000  Level FlightAware
04:38PM 34.0480 -77.4800 200° South 442 509 36,000  Level FlightAware
04:39PM 33.9860 -77.5070 200° South 443 510 36,000  Level FlightAware
04:40PM 33.9200 -77.5360 200° South 444 511 36,000  Level FlightAware
04:40PM 33.8360 -77.5720 200° South 444 511 36,000  Level FlightAware
04:41PM 33.7740 -77.5990 200° South 443 510 36,000  Level FlightAware
04:41PM 33.7030 -77.6300 200° South 443 510 36,000  Level FlightAware
04:42PM 33.6400 -77.6570 200° South 443 510 36,000  Level FlightAware
04:43PM 33.5660 -77.6890 200° South 444 511 36,000  Level FlightAware
04:43PM 33.5000 -77.7170 199° South 444 511 36,000  Level FlightAware
04:44PM 33.4330 -77.7460 200° South 443 510 36,000  Level FlightAware
04:45PM 33.3270 -77.7920 200° South 442 509 36,000  Level FlightAware
04:45PM 33.2480 -77.8260 200° South 442 509 36,000  Level FlightAware
04:46PM 33.1830 -77.8530 199° South 442 509 36,000  Level FlightAware
04:46PM 33.0580 -77.9070 200° South 445 512 36,000  Level FlightAware
04:47PM 32.9750 -77.9410 199° South 445 512 36,000  Level FlightAware
04:48PM 32.9150 -77.9660 199° South 445 512 36,000  Level FlightAware
04:48PM 33.0210 -77.9220 19° North 36,000  Level FlightAware
04:49PM 32.7930 -78.0190 200° South 445 512 36,000  Level FlightAware
04:49PM 32.7250 -78.0480 200° South 445 512 36,000  Level FlightAware
04:50PM 32.6530 -78.0780 199° South 445 512 36,000  Level FlightAware
04:50PM 32.5930 -78.1040 200° South 445 512 36,000  Level FlightAware
04:51PM 32.5140 -78.1370 199° South 444 511 36,000  Level FlightAware
04:52PM 32.4420 -78.1670 199° South 442 509 36,000  Level FlightAware
04:52PM 32.3750 -78.1950 199° South 443 510 36,000  Level FlightAware
04:53PM 32.3100 -78.2220 199° South 444 511 36,000  Level FlightAware
04:53PM 32.2400 -78.2520 200° South 445 512 36,000  Level FlightAware
04:54PM 32.1710 -78.2800 199° South 446 513 36,000  Level FlightAware
04:55PM 32.0890 -78.3140 199° South 447 514 36,000  Level FlightAware
04:56PM 31.9810 -78.3590 199° South 446 513 36,000  Level FlightAware
04:56PM 31.9800 -78.3600 220° Southwest 446 513 36,000  Level FlightAware
04:57PM 31.9030 -78.3900 198° South 446 513 36,000  Level FlightAware
04:58PM 31.8400 -78.4160 199° South 446 513 36,000  Level FlightAware
04:58PM 31.7810 -78.4400 199° South 446 513 36,000  Level FlightAware
04:59PM 31.7230 -78.4640 199° South 446 513 36,000  Level FlightAware
05:00PM 31.6610 -78.4890 199° South 446 513 36,000  Level FlightAware
05:00PM 31.6020 -78.5130 199° South 446 513 36,000  Level FlightAware
05:01PM 31.5420 -78.5370 199° South 446 513 36,000  Level FlightAware
05:01PM 31.4820 -78.5610 199° South 446 513 36,000  Level FlightAware
05:02PM 31.4220 -78.5850 199° South 446 513 36,000  Level FlightAware
05:03PM 31.3590 -78.6100 199° South 446 513 36,000  Level FlightAware
05:03PM 31.2980 -78.6350 199° South 446 513 36,000  Level FlightAware
05:04PM 31.2420 -78.6580 199° South 446 513 36,000  Level FlightAware
05:04PM 31.1820 -78.6820 199° South 446 513 36,000  Level FlightAware
05:05PM 31.1260 -78.7050 199° South 446 513 36,000  Level FlightAware
05:06PM 31.0660 -78.7290 199° South 446 513 36,000  Level FlightAware
05:07PM 30.6381 -78.8969 199° South 459 528 36,000  Level Jacksonville Center
05:08PM 30.5153 -78.9450 199° South 465 535 36,000  Level Miami Center
05:09PM 30.3936 -78.9933 199° South 465 535 36,000  Level Miami Center
05:10PM 30.2742 -79.0411 199° South 467 537 36,000  Level Miami Center
05:11PM 30.1525 -79.0867 198° South 467 537 36,000  Level Miami Center
05:12PM 30.0308 -79.1344 199° South 472 543 36,000  Level Miami Center
05:13PM 29.9089 -79.1942 203° Southwest 467 537 36,000  Level Miami Center
05:14PM 29.7811 -79.2344 195° South 474 545 36,000  Level Miami Center
05:15PM 29.6553 -79.2769 196° South 469 540 36,000  Level Miami Center
05:16PM 29.5356 -79.3269 200° South 469 540 36,000  Level Miami Center
05:22PM 28.8140 -79.6020 200° South 36,000  Level FlightAware
05:22PM 28.7530 -79.6250 198° South 474 545 36,000  Level FlightAware
05:23PM 28.6690 -79.6570 198° South 473 544 36,000  Level FlightAware
05:24PM 28.6050 -79.6800 198° South 473 544 36,000  Level FlightAware
05:24PM 28.5340 -79.7070 198° South 474 545 36,000  Level FlightAware
05:25PM 28.4610 -79.7350 199° South 474 545 36,000  Level FlightAware
05:25PM 28.3780 -79.7660 198° South 475 547 36,000  Level FlightAware
05:26PM 28.3180 -79.7880 198° South 474 545 36,000  Level FlightAware
05:26PM 28.2420 -79.8170 199° South 474 545 36,000  Level FlightAware
05:27PM 28.1670 -79.8450 198° South 474 545 36,000  Level FlightAware
05:28PM 28.0960 -79.8710 198° South 474 545 36,000  Level FlightAware
05:28PM 28.0240 -79.8980 198° South 475 547 36,000  Level FlightAware
05:29PM 27.9500 -79.9260 198° South 475 547 36,000  Level FlightAware
05:29PM 27.8670 -79.9570 198° South 475 547 36,000  Level FlightAware
05:30PM 27.7920 -79.9840 198° South 475 547 36,000  Level FlightAware
05:31PM 27.7340 -80.0060 199° South 475 547 36,000  Level FlightAware
05:31PM 27.6590 -80.0340 198° South 475 547 36,000  Level FlightAware
05:32PM 27.5750 -80.0650 198° South 474 545 36,000  Level FlightAware
05:32PM 27.5130 -80.0880 198° South 473 544 36,000  Level FlightAware
05:33PM 27.4380 -80.1150 198° South 474 545 36,000  Level FlightAware
05:33PM 27.3640 -80.1430 199° South 475 547 36,000  Level FlightAware
05:34PM 27.2910 -80.1700 198° South 477 549 36,000  Level FlightAware
05:35PM 27.2080 -80.2000 198° South 477 549 36,000  Level FlightAware
05:35PM 27.1450 -80.2230 198° South 477 549 36,000  Level FlightAware
05:36PM 27.0580 -80.2550 198° South 476 548 36,000  Level FlightAware
05:36PM 26.9970 -80.2770 198° South 476 548 36,000  Level FlightAware
05:37PM 26.9150 -80.3070 198° South 475 547 36,000  Level FlightAware
05:38PM 26.8520 -80.3300 198° South 474 545 36,000  Level FlightAware
05:38PM 26.7680 -80.3610 198° South 473 544 36,000  Level FlightAware
05:39PM 26.7080 -80.3830 198° South 472 543 36,000  Level FlightAware
05:39PM 26.6330 -80.4100 198° South 473 544 36,000  Level FlightAware
05:40PM 26.5610 -80.4380 199° South 471 542 36,000  Level FlightAware
05:40PM 26.4910 -80.4730 204° Southwest 472 543 36,000  Level FlightAware
05:41PM 26.4620 -80.4910 209° Southwest 467 537 36,000  Level FlightAware
05:41PM 26.4010 -80.5410 216° Southwest 463 533 36,000  Level FlightAware
05:42PM 26.3320 -80.6000 217° Southwest 463 533 36,000  Level FlightAware
05:42PM 26.2810 -80.6420 216° Southwest 465 535 36,000  Level FlightAware
05:43PM 26.2220 -80.6920 217° Southwest 466 536 36,000  Level FlightAware
05:44PM 26.1540 -80.7500 217° Southwest 468 539 36,000  Level FlightAware
05:44PM 26.1010 -80.7940 217° Southwest 469 540 36,000  Level FlightAware
05:45PM 26.0400 -80.8450 217° Southwest 464 534 36,000  Level FlightAware
05:45PM 25.9700 -80.9040 217° Southwest 466 536 36,000  Level FlightAware
05:46PM 25.9190 -80.9470 217° Southwest 467 537 36,000  Level FlightAware
05:47PM 25.8560 -80.9990 217° Southwest 467 537 36,000  Level FlightAware
05:47PM 25.7950 -81.0500 217° Southwest 467 537 36,000  Level FlightAware
05:48PM 25.7340 -81.1010 217° Southwest 467 537 36,000  Level FlightAware
05:48PM 25.6730 -81.1510 216° Southwest 467 537 36,000  Level FlightAware
05:49PM 25.6120 -81.2020 217° Southwest 467 537 36,000  Level FlightAware
05:49PM 25.5500 -81.2530 217° Southwest 469 540 36,000  Level FlightAware
05:50PM 25.4900 -81.3030 217° Southwest 469 540 36,000  Level FlightAware
05:51PM 25.4270 -81.3550 217° Southwest 469 540 36,000  Level FlightAware
05:51PM 25.3660 -81.4060 217° Southwest 468 539 36,000  Level FlightAware
05:52PM 25.3040 -81.4570 217° Southwest 467 537 36,000  Level FlightAware
05:52PM 25.2380 -81.5120 217° Southwest 468 539 36,000  Level FlightAware
05:53PM 25.1790 -81.5600 216° Southwest 469 540 36,000 -540 Level FlightAware
05:54PM 25.1170 -81.6120 217° Southwest 478 550 35,400 -960 Descending FlightAware
05:54PM 25.0540 -81.6630 216° Southwest 468 539 34,900 -1,020 Descending FlightAware
05:55PM 24.9640 -81.7370 217° Southwest 479 551 34,000 -1,080 Descending FlightAware
05:56PM 24.9020 -81.7880 217° Southwest 480 552 33,400 -1,020 Descending FlightAware
05:56PM 24.8490 -81.8310 216° Southwest 478 550 32,900 -1,140 Descending FlightAware
05:57PM 24.7780 -81.8890 217° Southwest 479 551 32,100 -1,500 Descending FlightAware
05:57PM 24.7080 -81.9460 216° Southwest 469 540 31,000 -1,560 Descending FlightAware
05:58PM 24.6450 -81.9970 216° Southwest 462 532 30,200 -1,560 Descending FlightAware
05:59PM 24.5870 -82.0440 216° Southwest 448 516 29,200 -1,800 Descending FlightAware
05:59PM 24.5390 -82.0830 216° Southwest 442 509 28,300 -1,920 Descending FlightAware
06:00PM 24.4640 -82.1450 217° Southwest 439 505 26,900 -1,740 Descending FlightAware
06:00PM 24.4170 -82.1820 216° Southwest 421 484 26,200 -1,200 Descending FlightAware
06:01PM 24.3540 -82.2340 217° Southwest 400 460 25,500 -1,080 Descending FlightAware
06:02PM 24.2910 -82.2840 216° Southwest 404 465 24,800 -960 Descending FlightAware
06:02PM 24.2400 -82.3250 216° Southwest 380 437 24,300 -720 Descending FlightAware
06:03PM 24.1800 -82.3750 217° Southwest 380 437 23,900 -300 Descending FlightAware
06:04PM 24.1370 -82.4100 217° Southwest 380 437 23,900  Level FlightAware
06:04PM 24.0940 -82.4460 217° Southwest 380 437 23,900  Level FlightAware
06:05PM 24.0510 -82.4810 217° Southwest 380 437 23,900  Level FlightAware
06:05PM 24.0080 -82.5170 217° Southwest 380 437 23,900  Level FlightAware
06:06PM 23.9650 -82.5520 217° Southwest 380 437 23,900  Level FlightAware
06:14PM 23.0311 -82.4097 172° South  Level FlightAware Approximate
06:15PM 22.9891 -82.4091 175° South  Level Estimated
06:16PM 22.9891 -82.4091 175° South  Level Estimated
06:17PM 22.9891 -82.4091 175° South  Level Estimated
06:18PM 22.9891 -82.4091 175° South  Level Estimated
06:19PM 22.9891 -82.4091 175° South  Level Estimated
06:20PM 22.9891 -82.4091 175° South  Level Estimated
06:21PM 22.9891 -82.4091 175° South  Level Estimated
06:22PM 22.9891 -82.4091 175° South  Level Estimated
06:23PM 22.9891 -82.4091 175° South  Level Estimated
06:24PM 22.9891 -82.4091 175° South  Level Estimated
06:25PM 22.9891 -82.4091 175° South  Level Estimated
06:26PM 22.9891 -82.4091 175° South  Level Estimated
06:27PM 22.9891 -82.4091 175° South  Level Estimated
06:28PM 22.9891 -82.4091 175° South  Level Estimated
06:29PM 22.9891 -82.4091 175° South  Level Estimated
06:30PM 22.9891 -82.4091 175° South  Level Estimated
06:31PM 22.9891 -82.4091 175° South  Level Estimated
06:32PM 22.9891 -82.4091 175° South  Level Estimated
06:33PM 22.9891 -82.4091 175° South  Level Estimated
06:34PM 22.9891 -82.4091 175° South  Level Estimated
06:35PM 22.9891 -82.4091 175° South  Level Estimated